createdAt,value
2019-01-16T00:00:10.210Z,99.99
2019-01-16T00:01:10.195Z,99.99
2019-01-16T00:02:10.181Z,99.99
2019-01-16T00:03:10.177Z,99.99
2019-01-16T00:04:10.183Z,99.99
2019-01-16T00:05:10.155Z,99.99
2019-01-16T00:06:10.151Z,99.99
2019-01-16T00:07:10.144Z,99.99
2019-01-16T00:08:10.118Z,99.99
2019-01-16T00:09:10.132Z,99.99
2019-01-16T00:10:10.097Z,99.99
2019-01-16T00:11:10.092Z,99.99
2019-01-16T00:12:10.080Z,99.99
2019-01-16T00:13:10.072Z,99.99
2019-01-16T00:14:10.116Z,99.99
2019-01-16T00:15:10.045Z,99.99
2019-01-16T00:16:10.032Z,99.99
2019-01-16T00:17:10.031Z,99.99
2019-01-16T00:18:16.882Z,99.99
2019-01-16T00:19:11.031Z,99.99
2019-01-16T00:20:09.994Z,99.99
2019-01-16T00:21:09.988Z,99.99
2019-01-16T00:22:09.976Z,99.99
2019-01-16T00:23:09.965Z,99.99
2019-01-16T00:24:09.954Z,99.99
2019-01-16T00:25:09.984Z,99.99
2019-01-16T00:26:09.935Z,99.99
2019-01-16T00:27:09.925Z,99.99
2019-01-16T00:28:09.914Z,99.99
2019-01-16T00:29:09.905Z,99.99
2019-01-16T00:30:09.900Z,99.99
2019-01-16T00:31:09.911Z,99.99
2019-01-16T00:32:09.883Z,99.99
2019-01-16T00:33:09.858Z,99.99
2019-01-16T00:34:09.845Z,99.99
2019-01-16T00:35:09.833Z,99.99
2019-01-16T00:36:09.826Z,99.99
2019-01-16T00:37:09.844Z,99.99
2019-01-16T00:38:09.808Z,99.82
2019-01-16T00:39:09.798Z,99.99
2019-01-16T00:40:09.790Z,99.88
2019-01-16T00:41:09.882Z,99.99
2019-01-16T00:42:09.760Z,99.99
2019-01-16T00:43:09.793Z,99.99
2019-01-16T00:44:09.745Z,99.99
2019-01-16T00:45:09.734Z,99.99
2019-01-16T00:46:09.725Z,99.88
2019-01-16T00:47:09.720Z,99.99
2019-01-16T00:48:09.707Z,99.99
2019-01-16T00:49:09.707Z,99.93
2019-01-16T00:50:09.686Z,99.78
2019-01-16T00:51:09.667Z,99.78
2019-01-16T00:52:09.657Z,99.99
2019-01-16T00:53:09.647Z,99.72
2019-01-16T00:54:09.672Z,99.99
2019-01-16T00:55:09.654Z,99.72
2019-01-16T00:56:09.612Z,99.41
2019-01-16T00:57:09.602Z,99.72
2019-01-16T00:58:09.624Z,99.68
2019-01-16T00:59:09.632Z,99.82
2019-01-16T01:00:09.585Z,99.99
2019-01-16T01:01:09.565Z,99.99
2019-01-16T01:02:09.562Z,99.82
2019-01-16T01:03:09.539Z,99.72
2019-01-16T01:04:09.555Z,99.52
2019-01-16T01:05:09.526Z,99.72
2019-01-16T01:06:09.514Z,99.82
2019-01-16T01:07:09.505Z,99.41
2019-01-16T01:08:09.486Z,99.78
2019-01-16T01:09:09.478Z,99.72
2019-01-16T01:10:09.489Z,98.96
2019-01-16T01:11:09.453Z,99.37
2019-01-16T01:12:09.450Z,99.62
2019-01-16T01:13:09.442Z,99.82
2019-01-16T01:14:09.435Z,99.72
2019-01-16T01:15:09.446Z,99.72
2019-01-16T01:16:09.407Z,99.93
2019-01-16T01:17:09.404Z,99.72
2019-01-16T01:18:09.390Z,99.62
2019-01-16T01:19:09.367Z,99.82
2019-01-16T01:20:09.363Z,99.99
2019-01-16T01:21:09.395Z,99.93
2019-01-16T01:22:09.337Z,99.31
2019-01-16T01:23:09.342Z,99.93
2019-01-16T01:24:09.318Z,99.41
2019-01-16T01:25:09.339Z,99.99
2019-01-16T01:26:09.295Z,99.99
2019-01-16T01:27:09.292Z,99.93
2019-01-16T01:28:09.289Z,99.72
2019-01-16T01:29:09.330Z,99.99
2019-01-16T01:30:09.288Z,99.72
2019-01-16T01:31:09.245Z,99.10
2019-01-16T01:32:09.289Z,99.00
2019-01-16T01:33:09.220Z,99.16
2019-01-16T01:34:09.217Z,99.10
2019-01-16T01:35:09.207Z,98.90
2019-01-16T01:36:09.229Z,99.31
2019-01-16T01:37:09.179Z,99.62
2019-01-16T01:38:09.184Z,99.82
2019-01-16T01:39:09.163Z,99.93
2019-01-16T01:40:09.150Z,99.62
2019-01-16T01:41:09.149Z,99.99
2019-01-16T01:42:09.149Z,99.68
2019-01-16T01:43:09.117Z,99.62
2019-01-16T01:44:09.108Z,99.99
2019-01-16T01:45:09.093Z,99.93
2019-01-16T01:46:09.094Z,99.62
2019-01-16T01:47:09.107Z,99.72
2019-01-16T01:48:09.079Z,99.72
2019-01-16T01:49:09.067Z,99.41
2019-01-16T01:50:09.041Z,99.62
2019-01-16T01:51:09.039Z,99.62
2019-01-16T01:52:09.031Z,99.99
2019-01-16T01:53:09.048Z,99.00
2019-01-16T01:54:09.003Z,99.10
2019-01-16T01:55:09.001Z,99.72
2019-01-16T01:56:08.982Z,99.72
2019-01-16T01:57:08.968Z,99.68
2019-01-16T01:58:08.966Z,99.00
2019-01-16T01:59:08.969Z,98.90
2019-01-16T02:00:08.940Z,99.00
2019-01-16T02:01:08.958Z,98.79
2019-01-16T02:02:08.930Z,99.10
2019-01-16T02:03:08.904Z,99.00
2019-01-16T02:04:08.922Z,99.10
2019-01-16T02:05:08.892Z,99.21
2019-01-16T02:06:08.882Z,98.90
2019-01-16T02:07:08.875Z,99.21
2019-01-16T02:08:08.861Z,98.90
2019-01-16T02:09:08.844Z,98.90
2019-01-16T02:10:08.856Z,98.90
2019-01-16T02:11:08.838Z,99.93
2019-01-16T02:12:08.808Z,99.72
2019-01-16T02:13:08.813Z,99.72
2019-01-16T02:14:08.792Z,99.52
2019-01-16T02:15:08.818Z,99.62
2019-01-16T02:16:08.781Z,98.79
2019-01-16T02:17:08.763Z,99.31
2019-01-16T02:18:08.753Z,99.10
2019-01-16T02:19:08.767Z,99.21
2019-01-16T02:20:08.725Z,99.00
2019-01-16T02:21:08.744Z,99.10
2019-01-16T02:22:08.738Z,99.31
2019-01-16T02:23:08.703Z,99.10
2019-01-16T02:24:08.693Z,99.21
2019-01-16T02:25:08.674Z,99.41
2019-01-16T02:26:08.663Z,99.10
2019-01-16T02:27:08.677Z,99.10
2019-01-16T02:28:08.648Z,99.00
2019-01-16T02:29:08.642Z,99.31
2019-01-16T02:30:08.625Z,99.10
2019-01-16T02:31:08.630Z,99.21
2019-01-16T02:32:08.603Z,99.10
2019-01-16T02:33:08.613Z,99.21
2019-01-16T02:34:08.596Z,98.69
2019-01-16T02:35:08.570Z,98.79
2019-01-16T02:36:08.568Z,98.90
2019-01-16T02:37:08.598Z,98.79
2019-01-16T02:38:08.537Z,98.58
2019-01-16T02:39:08.528Z,98.79
2019-01-16T02:40:08.535Z,98.79
2019-01-16T02:41:08.514Z,99.21
2019-01-16T02:42:08.503Z,98.49
2019-01-16T02:43:08.507Z,98.90
2019-01-16T02:44:08.474Z,98.79
2019-01-16T02:45:08.532Z,98.69
2019-01-16T02:46:08.476Z,98.58
2019-01-16T02:47:08.451Z,98.90
2019-01-16T02:48:08.463Z,98.90
2019-01-16T02:49:08.428Z,98.79
2019-01-16T02:50:08.443Z,98.79
2019-01-16T02:51:08.408Z,98.90
2019-01-16T02:52:08.399Z,98.79
2019-01-16T02:53:08.413Z,98.69
2019-01-16T02:54:08.373Z,98.79
2019-01-16T02:55:08.368Z,98.90
2019-01-16T02:56:08.360Z,99.26
2019-01-16T02:57:08.343Z,99.10
2019-01-16T02:58:08.332Z,99.00
2019-01-16T02:59:08.352Z,98.79
2019-01-16T03:00:08.313Z,98.79
2019-01-16T03:01:08.301Z,98.79
2019-01-16T03:02:08.292Z,98.38
2019-01-16T03:03:08.284Z,98.18
2019-01-16T03:04:08.265Z,99.00
2019-01-16T03:05:08.304Z,98.90
2019-01-16T03:06:08.240Z,99.00
2019-01-16T03:07:08.239Z,98.79
2019-01-16T03:08:08.225Z,99.00
2019-01-16T03:09:08.221Z,98.58
2019-01-16T03:10:08.225Z,99.21
2019-01-16T03:11:08.203Z,98.79
2019-01-16T03:12:08.183Z,98.58
2019-01-16T03:13:08.185Z,99.37
2019-01-16T03:14:08.156Z,99.21
2019-01-16T03:15:08.147Z,99.10
2019-01-16T03:16:08.165Z,99.21
2019-01-16T03:17:08.138Z,99.21
2019-01-16T03:18:08.123Z,99.62
2019-01-16T03:19:08.113Z,99.31
2019-01-16T03:20:08.095Z,99.00
2019-01-16T03:21:08.091Z,99.21
2019-01-16T03:22:08.105Z,99.10
2019-01-16T03:23:08.070Z,99.00
2019-01-16T03:24:08.051Z,99.31
2019-01-16T03:25:08.054Z,99.21
2019-01-16T03:26:08.031Z,99.31
2019-01-16T03:27:08.021Z,99.41
2019-01-16T03:28:08.040Z,98.79
2019-01-16T03:29:07.998Z,98.90
2019-01-16T03:30:08.001Z,99.00
2019-01-16T03:31:07.995Z,99.00
2019-01-16T03:32:07.993Z,99.31
2019-01-16T03:33:07.965Z,98.90
2019-01-16T03:34:07.992Z,98.79
2019-01-16T03:35:07.937Z,98.90
2019-01-16T03:36:07.935Z,98.28
2019-01-16T03:37:07.933Z,99.00
2019-01-16T03:38:07.936Z,99.21
2019-01-16T03:39:07.900Z,99.00
2019-01-16T03:40:07.908Z,99.21
2019-01-16T03:41:07.881Z,99.00
2019-01-16T03:42:07.869Z,99.00
2019-01-16T03:43:07.872Z,99.00
2019-01-16T03:44:07.848Z,98.02
2019-01-16T03:45:07.846Z,98.79
2019-01-16T03:46:07.826Z,98.49
2019-01-16T03:47:07.818Z,98.28
2019-01-16T03:48:07.804Z,98.07
2019-01-16T03:49:13.347Z,98.49
2019-01-16T03:50:08.814Z,98.49
2019-01-16T03:51:07.780Z,98.07
2019-01-16T03:52:07.758Z,98.07
2019-01-16T03:53:07.750Z,97.97
2019-01-16T03:54:07.743Z,98.49
2019-01-16T03:55:07.732Z,99.16
2019-01-16T03:56:07.742Z,99.00
2019-01-16T03:57:07.713Z,99.00
2019-01-16T03:58:07.695Z,99.00
2019-01-16T03:59:07.688Z,99.21
2019-01-16T04:00:07.679Z,99.00
2019-01-16T04:01:07.675Z,98.79
2019-01-16T04:02:07.699Z,98.79
2019-01-16T04:03:07.645Z,98.49
2019-01-16T04:04:07.640Z,98.38
2019-01-16T04:05:07.620Z,98.49
2019-01-16T04:06:07.612Z,98.07
2019-01-16T04:07:07.615Z,97.34
2019-01-16T04:08:07.615Z,97.14
2019-01-16T04:09:07.580Z,97.30
2019-01-16T04:10:07.575Z,97.55
2019-01-16T04:11:07.562Z,97.45
2019-01-16T04:12:07.555Z,97.34
2019-01-16T04:13:07.630Z,97.76
2019-01-16T04:14:07.548Z,97.34
2019-01-16T04:15:07.529Z,98.07
2019-01-16T04:16:07.510Z,98.07
2019-01-16T04:17:07.503Z,98.28
2019-01-16T04:18:07.486Z,97.45
2019-01-16T04:19:07.509Z,97.34
2019-01-16T04:20:07.471Z,97.45
2019-01-16T04:21:07.467Z,97.25
2019-01-16T04:22:07.450Z,97.25
2019-01-16T04:23:07.434Z,97.55
2019-01-16T04:24:07.435Z,98.28
2019-01-16T04:25:07.444Z,98.28
2019-01-16T04:26:07.401Z,98.13
2019-01-16T04:27:07.398Z,98.49
2019-01-16T04:28:07.385Z,98.18
2019-01-16T04:29:07.440Z,98.28
2019-01-16T04:30:07.389Z,98.28
2019-01-16T04:31:07.366Z,98.38
2019-01-16T04:32:07.345Z,97.66
2019-01-16T04:33:07.339Z,97.97
2019-01-16T04:34:07.326Z,98.38
2019-01-16T04:35:07.358Z,98.49
2019-01-16T04:36:07.305Z,98.69
2019-01-16T04:37:07.297Z,98.28
2019-01-16T04:38:07.285Z,98.79
2019-01-16T04:39:07.289Z,98.79
2019-01-16T04:40:07.255Z,98.90
2019-01-16T04:41:07.288Z,99.31
2019-01-16T04:42:07.249Z,99.31
2019-01-16T04:43:07.233Z,99.10
2019-01-16T04:44:07.216Z,99.00
2019-01-16T04:45:07.222Z,99.10
2019-01-16T04:46:07.217Z,99.21
2019-01-16T04:47:07.183Z,99.10
2019-01-16T04:48:07.180Z,99.00
2019-01-16T04:49:07.175Z,99.00
2019-01-16T04:50:07.167Z,98.90
2019-01-16T04:51:07.170Z,99.00
2019-01-16T04:52:07.134Z,99.41
2019-01-16T04:53:07.125Z,99.99
2019-01-16T04:54:07.107Z,99.72
2019-01-16T04:55:07.117Z,99.52
2019-01-16T04:56:07.092Z,99.31
2019-01-16T04:57:07.108Z,99.41
2019-01-16T04:58:07.077Z,99.10
2019-01-16T04:59:07.074Z,99.10
2019-01-16T05:00:07.050Z,99.10
2019-01-16T05:01:07.040Z,99.00
2019-01-16T05:02:07.090Z,99.72
2019-01-16T05:03:07.056Z,99.41
2019-01-16T05:04:07.006Z,99.21
2019-01-16T05:05:06.990Z,99.21
2019-01-16T05:06:06.999Z,99.00
2019-01-16T05:07:06.991Z,99.21
2019-01-16T05:08:06.971Z,99.10
2019-01-16T05:09:06.974Z,99.00
2019-01-16T05:10:06.950Z,99.21
2019-01-16T05:11:06.934Z,99.00
2019-01-16T05:12:06.924Z,99.62
2019-01-16T05:13:06.938Z,99.31
2019-01-16T05:14:06.931Z,98.90
2019-01-16T05:15:06.891Z,99.00
2019-01-16T05:16:06.883Z,98.90
2019-01-16T05:17:06.876Z,99.99
2019-01-16T05:18:06.867Z,99.52
2019-01-16T05:19:06.939Z,99.72
2019-01-16T05:20:06.834Z,99.62
2019-01-16T05:21:06.832Z,99.41
2019-01-16T05:22:06.822Z,99.31
2019-01-16T05:23:06.811Z,99.31
2019-01-16T05:24:06.820Z,99.52
2019-01-16T05:25:06.804Z,99.52
2019-01-16T05:26:06.778Z,99.82
2019-01-16T05:27:06.767Z,99.21
2019-01-16T05:28:06.763Z,99.21
2019-01-16T05:29:06.749Z,99.00
2019-01-16T05:30:06.787Z,99.21
2019-01-16T05:31:06.724Z,99.21
2019-01-16T05:32:06.720Z,99.10
2019-01-16T05:33:06.706Z,99.10
2019-01-16T05:34:06.694Z,99.00
2019-01-16T05:35:06.683Z,99.10
2019-01-16T05:36:06.694Z,99.31
2019-01-16T05:37:06.661Z,99.21
2019-01-16T05:38:06.646Z,99.52
2019-01-16T05:39:06.648Z,99.00
2019-01-16T05:40:06.646Z,99.21
2019-01-16T05:41:06.638Z,99.00
2019-01-16T05:42:06.604Z,99.10
2019-01-16T05:43:06.615Z,99.10
2019-01-16T05:44:06.603Z,99.10
2019-01-16T05:45:06.583Z,98.90
2019-01-16T05:46:06.598Z,99.10
2019-01-16T05:47:06.556Z,98.90
2019-01-16T05:48:06.550Z,99.00
2019-01-16T05:49:06.538Z,99.10
2019-01-16T05:50:06.536Z,99.00
2019-01-16T05:51:06.516Z,98.69
2019-01-16T05:52:06.528Z,99.37
2019-01-16T05:53:06.499Z,99.31
2019-01-16T05:54:06.497Z,98.58
2019-01-16T05:55:06.473Z,98.90
2019-01-16T05:56:06.458Z,99.41
2019-01-16T05:57:06.452Z,99.10
2019-01-16T05:58:06.456Z,99.00
2019-01-16T05:59:06.432Z,99.10
2019-01-16T06:00:06.422Z,99.21
2019-01-16T06:01:06.401Z,99.00
2019-01-16T06:02:06.394Z,99.21
2019-01-16T06:03:06.413Z,98.90
2019-01-16T06:04:06.374Z,98.69
2019-01-16T06:05:06.370Z,99.10
2019-01-16T06:06:06.350Z,98.90
2019-01-16T06:07:06.353Z,99.00
2019-01-16T06:08:06.356Z,98.90
2019-01-16T06:09:06.330Z,98.90
2019-01-16T06:10:06.328Z,98.69
2019-01-16T06:11:06.310Z,98.69
2019-01-16T06:12:06.295Z,98.90
2019-01-16T06:13:06.287Z,98.79
2019-01-16T06:14:06.289Z,98.69
2019-01-16T06:15:06.271Z,98.69
2019-01-16T06:16:06.252Z,98.69
2019-01-16T06:17:06.242Z,98.69
2019-01-16T06:18:06.301Z,98.49
2019-01-16T06:19:06.256Z,98.75
2019-01-16T06:20:06.209Z,98.79
2019-01-16T06:21:06.199Z,98.79
2019-01-16T06:22:06.199Z,99.10
2019-01-16T06:23:06.180Z,99.10
2019-01-16T06:24:06.165Z,98.79
2019-01-16T06:25:06.233Z,98.28
2019-01-16T06:26:06.144Z,98.49
2019-01-16T06:27:06.134Z,98.38
2019-01-16T06:28:06.124Z,98.49
2019-01-16T06:29:06.108Z,98.49
2019-01-16T06:30:06.103Z,98.38
2019-01-16T06:31:06.157Z,98.44
2019-01-16T06:32:06.094Z,98.07
2019-01-16T06:33:06.075Z,97.97
2019-01-16T06:34:06.066Z,98.49
2019-01-16T06:35:06.072Z,99.00
2019-01-16T06:36:06.036Z,98.38
2019-01-16T06:37:06.084Z,98.28
2019-01-16T06:38:06.019Z,98.38
2019-01-16T06:39:06.005Z,97.97
2019-01-16T06:40:06.007Z,99.00
2019-01-16T06:41:06.036Z,98.07
2019-01-16T06:42:05.971Z,99.21
2019-01-16T06:43:05.998Z,99.00
2019-01-16T06:44:05.967Z,99.00
2019-01-16T06:45:05.954Z,98.79
2019-01-16T06:46:05.946Z,98.79
2019-01-16T06:47:05.921Z,98.90
2019-01-16T06:48:05.913Z,98.79
2019-01-16T06:49:05.931Z,98.49
2019-01-16T06:50:05.894Z,98.90
2019-01-16T06:51:05.876Z,99.00
2019-01-16T06:52:05.897Z,98.79
2019-01-16T06:53:05.861Z,98.79
2019-01-16T06:54:05.855Z,99.10
2019-01-16T06:55:06.035Z,98.69
2019-01-16T06:56:05.841Z,98.69
2019-01-16T06:57:05.859Z,98.90
2019-01-16T06:58:05.816Z,99.00
2019-01-16T06:59:05.792Z,99.31
2019-01-16T07:00:05.783Z,98.28
2019-01-16T07:01:05.833Z,99.10
2019-01-16T07:02:05.777Z,98.79
2019-01-16T07:03:05.769Z,98.28
2019-01-16T07:04:05.748Z,99.10
2019-01-16T07:05:05.734Z,98.69
2019-01-16T07:06:05.724Z,99.31
2019-01-16T07:07:05.747Z,98.79
2019-01-16T07:08:05.712Z,99.10
2019-01-16T07:09:05.731Z,99.00
2019-01-16T07:10:05.684Z,99.10
2019-01-16T07:11:05.673Z,99.10
2019-01-16T07:12:05.665Z,99.31
2019-01-16T07:13:05.700Z,98.79
2019-01-16T07:14:05.663Z,99.00
2019-01-16T07:15:05.629Z,99.52
2019-01-16T07:16:05.631Z,98.79
2019-01-16T07:17:05.664Z,98.90
2019-01-16T07:18:05.637Z,99.21
2019-01-16T07:19:05.590Z,99.21
2019-01-16T07:20:09.771Z,99.00
2019-01-16T07:21:05.575Z,99.62
2019-01-16T07:22:05.571Z,99.10
2019-01-16T07:23:05.547Z,99.31
2019-01-16T07:24:05.557Z,99.82
2019-01-16T07:25:05.525Z,99.99
2019-01-16T07:26:05.514Z,99.99
2019-01-16T07:27:05.498Z,99.99
2019-01-16T07:28:05.490Z,99.99
2019-01-16T07:29:05.487Z,99.72
2019-01-16T07:30:05.498Z,99.99
2019-01-16T07:31:05.468Z,99.52
2019-01-16T07:32:05.450Z,99.62
2019-01-16T07:33:05.440Z,99.62
2019-01-16T07:34:05.430Z,99.72
2019-01-16T07:35:05.426Z,99.72
2019-01-16T07:36:05.423Z,99.52
2019-01-16T07:37:05.399Z,99.93
2019-01-16T07:38:05.393Z,99.99
2019-01-16T07:39:05.394Z,99.99
2019-01-16T07:40:05.374Z,99.10
2019-01-16T07:41:05.394Z,99.10
2019-01-16T07:42:05.345Z,99.00
2019-01-16T07:43:05.334Z,99.21
2019-01-16T07:44:05.320Z,99.62
2019-01-16T07:45:05.317Z,99.00
2019-01-16T07:46:05.326Z,99.21
2019-01-16T07:47:05.307Z,99.10
2019-01-16T07:48:05.276Z,99.21
2019-01-16T07:49:05.276Z,99.21
2019-01-16T07:50:05.278Z,99.00
2019-01-16T07:51:05.250Z,98.79
2019-01-16T07:52:05.273Z,99.00
2019-01-16T07:53:05.229Z,98.18
2019-01-16T07:54:05.222Z,98.58
2019-01-16T07:55:05.229Z,98.90
2019-01-16T07:56:05.211Z,99.21
2019-01-16T07:57:05.222Z,98.38
2019-01-16T07:58:05.175Z,98.44
2019-01-16T07:59:05.170Z,98.33
2019-01-16T08:00:05.161Z,98.38
2019-01-16T08:01:05.153Z,98.58
2019-01-16T08:02:05.134Z,98.38
2019-01-16T08:03:05.158Z,98.18
2019-01-16T08:04:05.118Z,98.23
2019-01-16T08:05:05.105Z,98.49
2019-01-16T08:06:05.089Z,98.18
2019-01-16T08:07:05.086Z,98.28
2019-01-16T08:08:05.084Z,97.76
2019-01-16T08:09:05.087Z,97.66
2019-01-16T08:10:05.058Z,96.89
2019-01-16T08:11:05.041Z,97.20
2019-01-16T08:12:05.067Z,97.41
2019-01-16T08:13:05.029Z,98.23
2019-01-16T08:14:05.022Z,97.20
2019-01-16T08:15:05.009Z,97.09
2019-01-16T08:16:04.988Z,97.51
2019-01-16T08:17:04.994Z,97.61
2019-01-16T08:18:04.974Z,97.09
2019-01-16T08:19:04.984Z,97.61
2019-01-16T08:20:04.963Z,96.99
2019-01-16T08:21:04.936Z,97.20
2019-01-16T08:22:04.925Z,97.09
2019-01-16T08:23:04.916Z,96.48
2019-01-16T08:24:04.907Z,96.37
2019-01-16T08:25:04.909Z,96.89
2019-01-16T08:26:04.892Z,96.79
2019-01-16T08:27:04.873Z,96.79
2019-01-16T08:28:04.864Z,96.69
2019-01-16T08:29:04.847Z,96.48
2019-01-16T08:30:04.869Z,96.48
2019-01-16T08:31:04.829Z,96.27
2019-01-16T08:32:04.827Z,96.06
2019-01-16T08:33:04.808Z,96.17
2019-01-16T08:34:04.796Z,95.55
2019-01-16T08:35:04.795Z,95.96
2019-01-16T08:36:04.794Z,95.86
2019-01-16T08:37:04.773Z,95.34
2019-01-16T08:38:04.763Z,95.65
2019-01-16T08:39:04.745Z,95.86
2019-01-16T08:40:04.742Z,95.81
2019-01-16T08:41:04.766Z,95.50
2019-01-16T08:42:04.717Z,95.55
2019-01-16T08:43:04.707Z,95.14
2019-01-16T08:44:04.702Z,94.93
2019-01-16T08:45:04.687Z,95.24
2019-01-16T08:46:04.707Z,95.55
2019-01-16T08:47:04.685Z,95.03
2019-01-16T08:48:04.656Z,95.03
2019-01-16T08:49:04.689Z,95.65
2019-01-16T08:50:04.650Z,95.55
2019-01-16T08:51:04.616Z,94.82
2019-01-16T08:52:04.620Z,94.57
2019-01-16T08:53:04.597Z,95.03
2019-01-16T08:54:04.590Z,95.14
2019-01-16T08:55:04.617Z,95.76
2019-01-16T08:56:04.570Z,94.72
2019-01-16T08:57:04.589Z,94.78
2019-01-16T08:58:04.542Z,95.96
2019-01-16T08:59:04.551Z,95.86
2019-01-16T09:00:04.522Z,95.71
2019-01-16T09:01:04.514Z,95.55
2019-01-16T09:02:04.595Z,94.42
2019-01-16T09:03:04.508Z,93.85
2019-01-16T09:04:04.487Z,94.06
2019-01-16T09:05:04.497Z,94.06
2019-01-16T09:06:04.461Z,94.17
2019-01-16T09:07:04.454Z,93.85
2019-01-16T09:08:04.475Z,94.06
2019-01-16T09:09:04.432Z,93.54
2019-01-16T09:10:04.421Z,93.85
2019-01-16T09:11:04.433Z,93.96
2019-01-16T09:12:04.399Z,94.27
2019-01-16T09:13:04.404Z,94.89
2019-01-16T09:14:04.399Z,94.17
2019-01-16T09:15:04.361Z,94.78
2019-01-16T09:16:04.362Z,94.06
2019-01-16T09:17:04.360Z,94.47
2019-01-16T09:18:04.338Z,94.17
2019-01-16T09:19:04.352Z,93.85
2019-01-16T09:20:04.340Z,93.96
2019-01-16T09:21:04.316Z,93.96
2019-01-16T09:22:04.296Z,94.06
2019-01-16T09:23:04.288Z,93.44
2019-01-16T09:24:04.284Z,94.06
2019-01-16T09:25:04.268Z,94.06
2019-01-16T09:26:04.259Z,93.65
2019-01-16T09:27:04.244Z,93.34
2019-01-16T09:28:04.235Z,93.44
2019-01-16T09:29:04.262Z,92.61
2019-01-16T09:30:04.215Z,92.82
2019-01-16T09:31:04.217Z,92.78
2019-01-16T09:32:04.184Z,93.34
2019-01-16T09:33:04.171Z,93.44
2019-01-16T09:34:04.161Z,92.41
2019-01-16T09:35:04.193Z,93.03
2019-01-16T09:36:04.161Z,93.54
2019-01-16T09:37:04.144Z,92.82
2019-01-16T09:38:04.130Z,92.51
2019-01-16T09:39:04.113Z,92.10
2019-01-16T09:40:04.103Z,92.00
2019-01-16T09:41:04.112Z,91.79
2019-01-16T09:42:04.078Z,91.69
2019-01-16T09:43:04.078Z,91.89
2019-01-16T09:44:04.069Z,92.47
2019-01-16T09:45:04.050Z,93.65
2019-01-16T09:46:04.091Z,92.51
2019-01-16T09:47:04.033Z,91.85
2019-01-16T09:48:04.024Z,92.37
2019-01-16T09:49:04.008Z,92.68
2019-01-16T09:50:03.995Z,92.31
2019-01-16T09:51:04.012Z,91.69
2019-01-16T09:52:03.982Z,91.89
2019-01-16T09:53:03.972Z,91.54
2019-01-16T09:54:03.959Z,91.75
2019-01-16T09:55:03.939Z,91.54
2019-01-16T09:56:03.936Z,91.24
2019-01-16T09:57:03.944Z,91.54
2019-01-16T09:58:03.911Z,91.85
2019-01-16T09:59:03.913Z,92.06
2019-01-16T10:00:03.893Z,91.03
2019-01-16T10:01:03.872Z,90.92
2019-01-16T10:02:03.873Z,92.06
2019-01-16T10:03:03.888Z,91.13
2019-01-16T10:04:03.852Z,90.31
2019-01-16T10:05:03.851Z,90.82
2019-01-16T10:06:03.820Z,90.72
2019-01-16T10:07:03.810Z,90.92
2019-01-16T10:08:03.834Z,92.12
2019-01-16T10:09:03.789Z,91.44
2019-01-16T10:10:03.787Z,91.44
2019-01-16T10:11:03.789Z,92.06
2019-01-16T10:12:03.771Z,90.92
2019-01-16T10:13:03.777Z,91.44
2019-01-16T10:14:03.735Z,90.41
2019-01-16T10:15:03.730Z,90.61
2019-01-16T10:16:03.761Z,91.30
2019-01-16T10:17:03.716Z,92.16
2019-01-16T10:18:04.632Z,90.88
2019-01-16T10:19:03.845Z,91.64
2019-01-16T10:20:03.685Z,92.02
2019-01-16T10:21:03.676Z,90.57
2019-01-16T10:22:03.659Z,90.99
2019-01-16T10:23:03.648Z,92.12
2019-01-16T10:24:03.662Z,90.99
2019-01-16T10:25:03.627Z,90.57
2019-01-16T10:26:03.615Z,90.47
2019-01-16T10:27:03.602Z,92.12
2019-01-16T10:28:03.622Z,92.12
2019-01-16T10:29:03.610Z,91.71
2019-01-16T10:30:03.591Z,91.64
2019-01-16T10:31:03.571Z,90.92
2019-01-16T10:32:03.559Z,91.60
2019-01-16T10:33:03.621Z,91.64
2019-01-16T10:34:03.523Z,91.96
2019-01-16T10:35:03.553Z,91.91
2019-01-16T10:36:03.509Z,92.12
2019-01-16T10:37:03.513Z,91.91
2019-01-16T10:38:03.491Z,91.50
2019-01-16T10:39:03.479Z,91.54
2019-01-16T10:40:03.655Z,92.12
2019-01-16T10:41:03.485Z,92.33
2019-01-16T10:42:03.444Z,91.60
2019-01-16T10:43:03.435Z,91.96
2019-01-16T10:44:03.429Z,92.02
2019-01-16T10:45:03.412Z,91.64
2019-01-16T10:46:03.434Z,92.99
2019-01-16T10:47:03.391Z,93.25
2019-01-16T10:48:03.400Z,93.91
2019-01-16T10:49:03.369Z,93.60
2019-01-16T10:50:03.376Z,93.60
2019-01-16T10:51:03.412Z,93.50
2019-01-16T10:52:03.359Z,93.91
2019-01-16T10:53:03.345Z,94.12
2019-01-16T10:54:03.324Z,94.32
2019-01-16T10:55:03.309Z,94.23
2019-01-16T10:56:03.297Z,94.12
2019-01-16T10:57:03.305Z,94.84
2019-01-16T10:58:03.276Z,95.36
2019-01-16T10:59:03.269Z,94.57
2019-01-16T11:00:03.251Z,95.09
2019-01-16T11:01:03.243Z,95.81
2019-01-16T11:02:03.251Z,95.50
2019-01-16T11:03:03.222Z,95.61
2019-01-16T11:04:03.213Z,95.92
2019-01-16T11:05:03.219Z,96.33
2019-01-16T11:06:03.185Z,95.61
2019-01-16T11:07:03.207Z,95.92
2019-01-16T11:08:03.177Z,96.02
2019-01-16T11:09:03.160Z,95.92
2019-01-16T11:10:03.158Z,96.23
2019-01-16T11:11:03.133Z,96.84
2019-01-16T11:12:03.134Z,97.05
2019-01-16T11:13:03.157Z,96.53
2019-01-16T11:14:03.101Z,97.16
2019-01-16T11:15:03.103Z,96.64
2019-01-16T11:16:03.100Z,97.26
2019-01-16T11:17:03.073Z,97.47
2019-01-16T11:18:03.063Z,97.47
2019-01-16T11:19:03.492Z,97.88
2019-01-16T11:20:03.038Z,98.33
2019-01-16T11:21:03.036Z,97.77
2019-01-16T11:22:03.023Z,97.88
2019-01-16T11:23:03.004Z,98.33
2019-01-16T11:24:03.006Z,99.06
2019-01-16T11:25:03.009Z,98.75
2019-01-16T11:26:02.981Z,98.75
2019-01-16T11:27:02.974Z,98.44
2019-01-16T11:28:02.961Z,98.96
2019-01-16T11:29:02.948Z,98.85
2019-01-16T11:30:02.954Z,98.75
2019-01-16T11:31:02.927Z,99.06
2019-01-16T11:32:02.928Z,99.06
2019-01-16T11:33:02.912Z,98.96
2019-01-16T11:34:02.896Z,99.57
2019-01-16T11:35:02.924Z,99.37
2019-01-16T11:36:02.894Z,99.37
2019-01-16T11:37:02.860Z,99.47
2019-01-16T11:38:02.857Z,99.37
2019-01-16T11:39:02.854Z,99.01
2019-01-16T11:40:04.827Z,98.96
2019-01-16T11:41:02.823Z,99.16
2019-01-16T11:42:02.835Z,99.06
2019-01-16T11:43:02.797Z,99.06
2019-01-16T11:44:02.792Z,98.96
2019-01-16T11:45:02.775Z,98.85
2019-01-16T11:46:02.830Z,99.06
2019-01-16T11:47:02.762Z,99.06
2019-01-16T11:48:02.769Z,99.47
2019-01-16T11:49:02.766Z,98.75
2019-01-16T11:50:02.728Z,99.06
2019-01-16T11:51:02.735Z,99.16
2019-01-16T11:52:02.738Z,99.37
2019-01-16T11:53:02.696Z,99.16
2019-01-16T11:54:02.680Z,99.16
2019-01-16T11:55:02.669Z,98.75
2019-01-16T11:56:02.663Z,98.85
2019-01-16T11:57:02.653Z,98.91
2019-01-16T11:58:02.671Z,98.85
2019-01-16T11:59:02.633Z,98.85
2019-01-16T12:00:02.643Z,98.96
2019-01-16T12:01:02.619Z,99.06
2019-01-16T12:02:02.618Z,99.26
2019-01-16T12:03:02.609Z,98.96
2019-01-16T12:04:02.616Z,98.96
2019-01-16T12:05:02.569Z,98.65
2019-01-16T12:06:02.567Z,98.75
2019-01-16T12:07:02.551Z,98.65
2019-01-16T12:08:02.539Z,98.91
2019-01-16T12:09:02.538Z,98.91
2019-01-16T12:10:02.536Z,98.65
2019-01-16T12:11:02.503Z,97.92
2019-01-16T12:12:02.503Z,97.51
2019-01-16T12:13:02.487Z,97.51
2019-01-16T12:14:02.490Z,97.47
2019-01-16T12:15:02.518Z,97.05
2019-01-16T12:16:02.448Z,97.26
2019-01-16T12:17:02.440Z,97.26
2019-01-16T12:18:02.475Z,97.26
2019-01-16T12:19:02.443Z,97.26
2019-01-16T12:20:02.422Z,97.56
2019-01-16T12:21:02.432Z,96.84
2019-01-16T12:22:02.385Z,96.44
2019-01-16T12:23:02.381Z,96.95
2019-01-16T12:24:02.367Z,97.16
2019-01-16T12:25:02.355Z,96.53
2019-01-16T12:26:08.099Z,95.92
2019-01-16T12:27:03.364Z,96.02
2019-01-16T12:28:02.321Z,96.44
2019-01-16T12:29:02.321Z,96.23
2019-01-16T12:30:02.309Z,96.64
2019-01-16T12:31:02.292Z,96.44
2019-01-16T12:32:03.410Z,96.64
2019-01-16T12:33:02.298Z,95.92
2019-01-16T12:34:02.272Z,95.81
2019-01-16T12:35:02.252Z,96.02
2019-01-16T12:36:02.247Z,96.23
2019-01-16T12:37:02.271Z,95.61
2019-01-16T12:38:02.225Z,95.77
2019-01-16T12:39:02.214Z,95.81
2019-01-16T12:40:02.218Z,96.12
2019-01-16T12:41:02.213Z,95.61
2019-01-16T12:42:02.188Z,95.81
2019-01-16T12:43:02.198Z,95.61
2019-01-16T12:44:02.215Z,95.71
2019-01-16T12:45:02.185Z,95.50
2019-01-16T12:46:02.139Z,95.40
2019-01-16T12:47:02.143Z,95.81
2019-01-16T12:48:02.126Z,95.92
2019-01-16T12:49:02.157Z,95.61
2019-01-16T12:50:02.094Z,95.71
2019-01-16T12:51:02.085Z,95.61
2019-01-16T12:52:02.084Z,95.40